Time;durP1;ratioP1;P1;durP2;ratioP2;P2;SDS_P1;SDS_P2;PMS_P1;PMS_P2;Temp;Humidity;BMP_temperature;BMP_pressure;BME280_temperature;BME280_humidity;BME280_pressure;Samples;Min_cycle;Max_cycle;Signal;HPM_P1;HPM_P2
2022/07/02 00:00:53;;;;;;;0.52;0.50;;;;;;;20.12;43.21;101628.94;5200339;28;20052;-80
2022/07/02 00:03:38;;;;;;;0.25;0.25;;;;;;;20.10;42.89;101630.84;5191890;28;20675;-79
2022/07/02 00:06:18;;;;;;;0.30;0.30;;;;;;;20.05;43.09;101629.38;5207486;28;20064;-80
2022/07/02 00:08:50;;;;;;;0.30;0.30;;;;;;;20.03;43.06;101625.91;5224113;28;20088;-79
2022/07/02 00:11:21;;;;;;;0.30;0.30;;;;;;;19.99;43.18;101627.88;5197261;28;20520;-79
2022/07/02 00:13:52;;;;;;;0.20;0.20;;;;;;;19.98;43.28;101628.81;5223132;28;20116;-79
2022/07/02 00:16:23;;;;;;;0.40;0.40;;;;;;;19.96;43.24;101628.03;5193253;28;20094;-79
2022/07/02 00:18:54;;;;;;;4.28;1.55;;;;;;;19.91;43.47;101625.66;5205292;28;20521;-80
2022/07/02 00:21:25;;;;;;;1.38;0.90;;;;;;;19.86;43.80;101630.31;5200824;28;20069;-79
2022/07/02 00:23:55;;;;;;;0.55;0.55;;;;;;;19.84;43.25;101628.66;5203402;28;20029;-79
2022/07/02 00:26:33;;;;;;;0.93;0.93;;;;;;;19.80;43.61;101627.97;5182542;28;20045;-80
2022/07/02 00:29:33;;;;;;;0.20;0.20;;;;;;;19.75;43.51;101630.00;5207100;28;20032;-80
2022/07/02 00:32:12;;;;;;;0.30;0.30;;;;;;;19.68;43.65;101629.44;5192283;28;20194;-79
2022/07/02 00:34:44;;;;;;;3.60;0.88;;;;;;;19.65;43.98;101629.59;5218136;28;20039;-80
2022/07/02 00:37:15;;;;;;;0.90;0.82;;;;;;;19.62;43.50;101633.28;5186839;28;20033;-79
2022/07/02 00:39:46;;;;;;;0.28;0.28;;;;;;;19.59;43.80;101630.75;5197253;28;20029;-79
2022/07/02 00:42:20;;;;;;;0.30;0.30;;;;;;;19.56;44.24;101630.06;5188662;28;20044;-79
2022/07/02 00:44:51;;;;;;;0.38;0.38;;;;;;;19.49;44.14;101635.69;5190639;28;20035;-79
2022/07/02 00:47:25;;;;;;;0.50;0.50;;;;;;;19.44;43.87;101621.78;5170509;28;20138;-80
2022/07/02 00:49:56;;;;;;;0.30;0.30;;;;;;;19.44;44.21;101628.88;5205781;28;20039;-80
2022/07/02 00:52:26;;;;;;;0.30;0.30;;;;;;;19.41;44.31;101627.25;5199550;28;20037;-79
2022/07/02 00:54:57;;;;;;;0.20;0.20;;;;;;;19.39;44.31;101626.44;5186968;28;20516;-79
2022/07/02 00:57:30;;;;;;;0.30;0.30;;;;;;;19.36;44.51;101629.28;5208607;28;20037;-80
2022/07/02 01:00:04;;;;;;;0.30;0.30;;;;;;;19.33;44.74;101622.31;5220666;28;20045;-79
2022/07/02 01:02:36;;;;;;;0.20;0.20;;;;;;;19.28;45.01;101621.66;5174241;28;20033;-80
2022/07/02 01:05:13;;;;;;;1.02;0.90;;;;;;;19.27;44.38;101624.41;5189580;28;20025;-79
2022/07/02 01:10:16;;;;;;;0.80;0.63;;;;;;;19.19;44.94;101623.00;5196552;28;20678;-80
2022/07/02 01:10:43;;;;;;;0.30;0.30;;;;;;;19.15;44.76;101610.75;5203300;28;20049;-80
2022/07/02 01:13:14;;;;;;;0.20;0.20;;;;;;;19.11;44.79;101614.53;5187000;28;20437;-79
2022/07/02 01:15:48;;;;;;;0.88;0.80;;;;;;;19.06;44.81;101616.53;5170311;28;20045;-79
2022/07/02 01:18:24;;;;;;;0.20;0.20;;;;;;;19.04;44.77;101621.09;5187426;28;20043;-80
2022/07/02 01:20:55;;;;;;;0.20;0.20;;;;;;;19.00;45.08;101612.41;5200960;28;20688;-79
2022/07/02 01:23:32;;;;;;;0.20;0.20;;;;;;;18.95;44.62;101609.06;5173020;28;20452;-80
2022/07/02 01:26:12;;;;;;;0.75;0.63;;;;;;;18.93;45.00;101604.78;5200780;28;20381;-80
2022/07/02 01:28:48;;;;;;;0.20;0.20;;;;;;;18.88;45.03;101608.47;5186821;28;20037;-79
2022/07/02 01:31:19;;;;;;;0.20;0.20;;;;;;;18.86;45.12;101610.38;5216333;28;20044;-80
2022/07/02 01:33:49;;;;;;;0.45;0.38;;;;;;;18.83;45.33;101610.50;5187855;28;20034;-80
2022/07/02 01:36:20;;;;;;;0.40;0.40;;;;;;;18.80;45.37;101605.31;5176535;28;20041;-80
2022/07/02 01:38:53;;;;;;;0.20;0.20;;;;;;;18.79;45.25;101606.28;5231350;28;20052;-80
2022/07/02 01:41:43;;;;;;;0.22;0.22;;;;;;;18.76;45.61;101605.56;5199265;28;20095;-79
2022/07/02 01:44:14;;;;;;;0.20;0.20;;;;;;;18.72;45.64;101607.47;5203863;28;20384;-79
2022/07/02 01:46:45;;;;;;;0.25;0.25;;;;;;;18.70;45.42;101609.38;5185200;28;20037;-80
2022/07/02 01:49:16;;;;;;;0.45;0.45;;;;;;;18.66;45.33;101613.09;5190145;28;20082;-79
2022/07/02 01:51:46;;;;;;;0.20;0.20;;;;;;;18.65;45.67;101614.03;5136904;28;20132;-81
2022/07/02 01:54:17;;;;;;;0.40;0.40;;;;;;;18.56;45.75;101608.19;5172239;28;20041;-79
2022/07/02 01:56:48;;;;;;;0.30;0.30;;;;;;;18.53;45.61;101608.38;5191979;28;20076;-79
2022/07/02 01:59:18;;;;;;;0.13;0.13;;;;;;;18.50;45.66;101605.84;5194359;28;20048;-79
2022/07/02 02:01:49;;;;;;;0.20;0.20;;;;;;;18.47;46.07;101608.63;5186269;28;20033;-80
2022/07/02 02:04:22;;;;;;;0.30;0.30;;;;;;;18.44;45.89;101613.22;5184769;28;20030;-79
2022/07/02 02:06:53;;;;;;;0.85;0.85;;;;;;;18.40;45.78;101612.50;5220436;28;20045;-78
2022/07/02 02:09:27;;;;;;;0.50;0.50;;;;;;;18.41;46.03;101611.56;5207248;28;20033;-79
2022/07/02 02:12:02;;;;;;;1.08;0.73;;;;;;;18.37;45.96;101617.97;5207793;28;20756;-79
2022/07/02 02:14:34;;;;;;;0.57;0.57;;;;;;;18.33;46.01;101616.38;5184910;28;20051;-80
2022/07/02 02:17:07;;;;;;;0.30;0.30;;;;;;;18.31;46.13;101619.13;5204397;28;20041;-80
2022/07/02 02:19:38;;;;;;;0.30;0.30;;;;;;;18.28;46.19;101618.41;5197397;28;20035;-80
2022/07/02 02:22:17;;;;;;;0.45;0.45;;;;;;;18.21;46.38;101623.13;5207274;28;20103;-80
2022/07/02 02:24:48;;;;;;;0.28;0.28;;;;;;;18.17;46.61;101613.56;5224799;28;20027;-80
2022/07/02 02:27:18;;;;;;;0.75;0.75;;;;;;;18.15;46.56;101608.31;5210462;28;20413;-80
2022/07/02 02:29:49;;;;;;;0.30;0.30;;;;;;;18.13;46.54;101614.63;5175321;28;20265;-81
2022/07/02 02:32:19;;;;;;;0.50;0.50;;;;;;;18.09;46.65;101613.91;5187947;28;20114;-80
2022/07/02 02:34:50;;;;;;;1.48;1.05;;;;;;;18.07;46.74;101610.44;5208166;28;20035;-80
2022/07/02 02:37:23;;;;;;;0.20;0.20;;;;;;;18.03;46.56;101614.19;5190554;28;20441;-79
2022/07/02 02:39:54;;;;;;;0.25;0.25;;;;;;;18.00;46.94;101611.66;5217873;28;20030;-80
2022/07/02 02:42:25;;;;;;;0.45;0.45;;;;;;;17.96;46.89;101613.59;5185615;28;20045;-80
2022/07/02 02:44:55;;;;;;;0.20;0.20;;;;;;;17.94;47.12;101616.28;5227242;28;20033;-79
2022/07/02 02:47:25;;;;;;;0.40;0.40;;;;;;;17.90;46.90;101625.28;5190149;28;20044;-80
2022/07/02 02:49:56;;;;;;;0.60;0.60;;;;;;;17.87;47.00;101616.59;5176064;28;20037;-79
2022/07/02 02:52:26;;;;;;;0.73;0.73;;;;;;;17.85;47.02;101616.69;5187992;28;20041;-80
2022/07/02 02:55:01;;;;;;;0.45;0.45;;;;;;;17.82;47.28;101619.47;5192983;28;20029;-80
2022/07/02 02:57:32;;;;;;;0.30;0.30;;;;;;;17.81;47.35;101620.38;5207927;28;20131;-80
2022/07/02 03:00:23;;;;;;;1.17;1.13;;;;;;;17.77;47.36;101622.31;5186743;28;20025;-80
2022/07/02 03:02:56;;;;;;;0.30;0.30;;;;;;;17.74;47.70;101626.88;5175244;28;20041;-80
2022/07/02 03:05:29;;;;;;;0.28;0.28;;;;;;;17.72;47.88;101631.41;5226987;28;20207;-80
2022/07/02 03:08:03;;;;;;;0.22;0.22;;;;;;;17.68;47.48;101632.47;5229711;28;20032;-80
2022/07/02 03:10:36;;;;;;;0.20;0.20;;;;;;;17.63;47.51;101624.69;5215500;28;20036;-80
2022/07/02 03:13:10;;;;;;;1.52;1.17;;;;;;;17.60;47.92;101624.84;5227619;28;20029;-80
2022/07/02 03:15:44;;;;;;;0.30;0.30;;;;;;;17.56;47.76;101631.19;5179784;28;20548;-80
2022/07/02 03:18:19;;;;;;;0.25;0.25;;;;;;;17.52;47.62;101638.41;5208626;28;20591;-80
2022/07/02 03:20:52;;;;;;;0.93;0.93;;;;;;;17.52;47.88;101638.41;5189643;28;20071;-80
2022/07/02 03:23:22;;;;;;;0.40;0.40;;;;;;;17.49;47.84;101640.34;5183304;28;20030;-80
2022/07/02 03:25:54;;;;;;;0.20;0.20;;;;;;;17.46;48.02;101642.19;5204922;28;20050;-80
2022/07/02 03:28:24;;;;;;;0.20;0.20;;;;;;;17.42;47.92;101640.59;5190015;28;20116;-79
2022/07/02 03:30:58;;;;;;;0.50;0.43;;;;;;;17.39;48.37;101640.72;5192075;28;20132;-80
2022/07/02 03:33:29;;;;;;;0.22;0.22;;;;;;;17.35;48.00;101640.91;5181800;28;20036;-81
2022/07/02 03:36:02;;;;;;;1.48;0.47;;;;;;;17.34;48.03;101644.47;5201747;28;20521;-78
2022/07/02 03:38:33;;;;;;;0.50;0.50;;;;;;;17.32;48.23;101644.56;5176888;28;20033;-78
2022/07/02 03:41:03;;;;;;;0.40;0.40;;;;;;;17.31;48.17;101640.16;5171518;28;20103;-79
2022/07/02 03:43:36;;;;;;;;;;;;;;;17.28;48.18;101637.63;5194638;28;20013;-80
2022/07/02 03:46:10;;;;;;;0.20;0.20;;;;;;;17.28;48.30;101634.97;5189368;28;19979;-79
2022/07/02 03:48:44;;;;;;;0.22;0.22;;;;;;;17.23;48.36;101634.31;5192442;28;20021;-79
2022/07/02 03:51:15;;;;;;;0.28;0.28;;;;;;;17.22;48.28;101644.06;5185438;28;20056;-79
2022/07/02 03:53:48;;;;;;;0.38;0.38;;;;;;;17.18;48.42;101634.50;5189478;28;20029;-79
2022/07/02 03:56:22;;;;;;;0.57;0.57;;;;;;;17.18;48.43;101637.16;5182432;28;20051;-79
2022/07/02 03:58:52;;;;;;;0.38;0.38;;;;;;;17.17;48.42;101637.22;5173464;28;20044;-79
2022/07/02 04:01:23;;;;;;;0.30;0.30;;;;;;;17.15;48.52;101639.91;5180085;28;20046;-79
2022/07/02 04:03:53;;;;;;;0.40;0.40;;;;;;;17.14;48.46;101636.41;5183842;28;20086;-80
2022/07/02 04:06:24;;;;;;;0.73;0.73;;;;;;;17.14;48.82;101635.56;5197500;28;20033;-79
2022/07/02 04:08:54;;;;;;;0.30;0.30;;;;;;;17.10;48.48;101639.25;5189754;28;20035;-80
2022/07/02 04:11:25;;;;;;;0.40;0.40;;;;;;;17.09;48.74;101637.50;5176700;28;20803;-80
2022/07/02 04:13:56;;;;;;;0.30;0.30;;;;;;;17.07;48.60;101636.69;5195781;28;20059;-80
2022/07/02 04:16:26;;;;;;;1.83;0.25;;;;;;;17.04;48.83;101647.44;5182256;28;20083;-80
2022/07/02 04:18:57;;;;;;;0.30;0.30;;;;;;;17.04;49.03;101644.78;5185714;28;20120;-80
2022/07/02 04:21:36;;;;;;;0.30;0.30;;;;;;;17.04;48.53;101650.09;5198657;28;20037;-80
2022/07/02 04:24:09;;;;;;;0.20;0.20;;;;;;;17.02;48.90;101644.88;5193173;28;20056;-79
2022/07/02 04:26:43;;;;;;;2.42;0.50;;;;;;;17.02;49.02;101644.00;5194218;28;20041;-80
2022/07/02 04:29:13;;;;;;;0.47;0.47;;;;;;;17.02;49.17;101646.63;5184590;28;20025;-80
2022/07/02 04:31:44;;;;;;;0.52;0.52;;;;;;;17.01;49.16;101645.78;5182455;28;20049;-80
2022/07/02 04:34:21;;;;;;;0.20;0.20;;;;;;;17.03;49.31;101648.38;5185337;28;20029;-80
2022/07/02 04:36:51;;;;;;;0.47;0.30;;;;;;;17.01;49.36;101645.78;5179927;28;20584;-80
2022/07/02 04:39:22;;;;;;;0.60;0.60;;;;;;;17.00;49.33;101649.38;5198704;28;20056;-80
2022/07/02 04:41:52;;;;;;;0.60;0.60;;;;;;;16.99;49.40;101653.78;5197642;28;20045;-82
2022/07/02 04:44:24;;;;;;;3.92;1.08;;;;;;;17.02;49.09;101662.53;5187209;28;20037;-78
2022/07/02 04:46:55;;;;;;;0.20;0.20;;;;;;;16.99;49.40;101663.53;5207033;28;20035;-78
2022/07/02 04:49:26;;;;;;;0.40;0.40;;;;;;;16.99;49.47;101653.78;5227319;28;20029;-77
2022/07/02 04:51:56;;;;;;;0.68;0.68;;;;;;;17.01;49.62;101650.22;5199945;28;20029;-79
2022/07/02 04:54:27;;;;;;;0.20;0.20;;;;;;;17.01;49.66;101652.84;5203538;28;20127;-79
2022/07/02 04:57:00;;;;;;;0.30;0.30;;;;;;;17.01;49.66;101651.09;5201750;28;20537;-79
2022/07/02 04:59:31;;;;;;;0.30;0.30;;;;;;;17.02;50.02;101646.63;5219097;28;20029;-78
2022/07/02 05:02:01;;;;;;;0.40;0.40;;;;;;;17.01;49.77;101639.59;5180657;28;20229;-79
2022/07/02 05:04:32;;;;;;;0.30;0.30;;;;;;;17.02;49.72;101644.00;5168621;28;20080;-79
2022/07/02 05:07:08;;;;;;;0.40;0.40;;;;;;;17.04;49.79;101650.94;5185887;28;20136;-79
2022/07/02 05:09:39;;;;;;;0.35;0.35;;;;;;;17.06;49.85;101645.59;5219730;28;20032;-79
2022/07/02 05:12:13;;;;;;;1.02;0.52;;;;;;;17.05;50.05;101642.06;5182961;28;20063;-78
2022/07/02 05:14:43;;;;;;;0.30;0.30;;;;;;;17.07;50.11;101645.53;5185326;28;20087;-79
2022/07/02 05:17:14;;;;;;;0.20;0.20;;;;;;;17.08;50.07;101651.69;5188133;28;20037;-79
2022/07/02 05:19:44;;;;;;;1.10;0.95;;;;;;;17.08;50.27;101646.38;5176575;28;20109;-79
2022/07/02 05:22:15;;;;;;;0.28;0.28;;;;;;;17.09;50.17;101640.16;5178755;28;20124;-79
2022/07/02 05:24:46;;;;;;;0.20;0.20;;;;;;;17.12;50.37;101648.00;5215022;28;20337;-79
2022/07/02 05:27:18;;;;;;;0.43;0.40;;;;;;;17.12;50.55;101648.00;5198834;28;20053;-79
2022/07/02 05:29:49;;;;;;;0.30;0.30;;;;;;;17.13;50.41;101653.25;5200966;28;20056;-79
2022/07/02 05:32:25;;;;;;;;;;;;;;;17.14;50.39;101640.88;5170725;28;20769;-79
2022/07/02 05:34:55;;;;;;;0.30;0.30;;;;;;;17.17;50.49;101643.38;5198771;28;19913;-79
2022/07/02 05:37:26;;;;;;;0.73;0.73;;;;;;;17.18;50.35;101637.16;5183322;28;20048;-80
2022/07/02 05:39:57;;;;;;;1.33;0.65;;;;;;;17.21;50.62;101646.75;5186757;28;20025;-79
2022/07/02 05:42:32;;;;;;;;;;;;;;;17.22;50.46;101644.06;5171835;28;20136;-79
2022/07/02 05:45:03;;;;;;;1.60;0.83;;;;;;;17.23;51.28;101644.91;5201483;28;19912;-79
2022/07/02 05:47:34;;;;;;;1.10;0.55;;;;;;;17.26;50.76;101653.63;5210286;28;20539;-79
2022/07/02 05:50:11;;;;;;;0.25;0.25;;;;;;;17.27;50.51;101657.16;5203061;28;20512;-80
2022/07/02 05:52:45;;;;;;;23.73;0.77;;;;;;;17.27;50.80;101657.16;5185824;28;20370;-79
2022/07/02 05:55:22;;;;;;;0.30;0.30;;;;;;;17.30;50.61;101657.88;5192295;28;20032;-79
2022/07/02 05:57:53;;;;;;;0.52;0.52;;;;;;;17.34;50.87;101655.09;5188876;28;20025;-79
2022/07/02 06:00:24;;;;;;;0.38;0.38;;;;;;;17.35;50.98;101659.47;5205673;28;20600;-79
2022/07/02 06:02:57;;;;;;;0.30;0.30;;;;;;;17.37;50.50;101660.28;5202099;28;20075;-80
2022/07/02 06:08:17;;;;;;;0.30;0.30;;;;;;;17.40;50.87;101670.75;5203386;28;20040;-79
2022/07/02 06:10:48;;;;;;;0.32;0.32;;;;;;;17.44;51.14;101675.00;5176413;28;20029;-80
2022/07/02 06:13:18;;;;;;;0.20;0.20;;;;;;;17.48;50.89;101668.63;5181716;28;20405;-80
2022/07/02 06:15:49;;;;;;;0.20;0.20;;;;;;;17.51;50.93;101668.53;5193182;28;20171;-79
2022/07/02 06:18:23;;;;;;;0.20;0.20;;;;;;;17.52;50.89;101672.91;5191881;28;20041;-79
2022/07/02 06:20:54;;;;;;;0.50;0.50;;;;;;;17.53;51.01;101672.00;5202283;28;20448;-79
2022/07/02 06:23:30;;;;;;;0.20;0.20;;;;;;;17.56;51.11;101668.34;5190864;28;20053;-79
2022/07/02 06:26:00;;;;;;;;;;;;;;;17.60;51.14;101673.47;5205402;28;20043;-79
2022/07/02 06:28:33;;;;;;;0.20;0.20;;;;;;;17.64;51.92;101674.19;5185836;28;20710;-79
2022/07/02 06:31:08;;;;;;;;;;;;;;;17.65;51.36;101670.63;5177565;28;20148;-79
2022/07/02 06:33:41;;;;;;;0.20;0.20;;;;;;;17.69;51.23;101674.00;5192017;28;20288;-79
2022/07/02 06:36:15;;;;;;;1.48;1.23;;;;;;;17.71;51.26;101672.16;5195460;28;20097;-79
2022/07/02 06:38:45;;;;;;;0.20;0.20;;;;;;;17.75;51.14;101673.72;5202102;28;20037;-79
2022/07/02 06:44:11;;;;;;;0.30;0.30;;;;;;;17.78;51.63;101671.81;5217317;28;20501;-79
2022/07/02 06:46:42;;;;;;;0.20;0.20;;;;;;;17.81;51.38;101670.81;5214703;28;20037;-79
2022/07/02 06:49:12;;;;;;;0.63;0.52;;;;;;;17.90;51.27;101673.06;5203930;28;20036;-79
2022/07/02 06:51:43;;;;;;;0.20;0.20;;;;;;;17.92;51.16;101665.91;5191324;28;20084;-79
2022/07/02 06:54:13;;;;;;;0.20;0.20;;;;;;;17.99;50.90;101671.00;5191990;28;20552;-79
2022/07/02 06:56:46;;;;;;;0.73;0.73;;;;;;;17.99;50.91;101669.22;5182258;28;20040;-80
2022/07/02 06:59:17;;;;;;;0.50;0.50;;;;;;;18.01;50.94;101670.03;5209418;28;20415;-80
2022/07/02 07:01:47;;;;;;;0.20;0.20;;;;;;;18.05;50.94;101671.59;5186957;28;20049;-80
2022/07/02 07:04:18;;;;;;;0.20;0.20;;;;;;;18.14;50.77;101675.63;5188016;28;20032;-80
2022/07/02 07:06:57;;;;;;;;;;;;;;;18.17;50.80;101666.69;5169669;28;20559;-79
2022/07/02 07:09:28;;;;;;;0.30;0.30;;;;;;;18.19;50.53;101664.81;5172445;28;19917;-79
2022/07/02 07:12:00;;;;;;;0.20;0.20;;;;;;;18.17;50.60;101654.25;5178804;28;20421;-79
2022/07/02 07:14:41;;;;;;;0.20;0.20;;;;;;;18.21;50.89;101661.19;5183916;28;20123;-79
2022/07/02 07:17:15;;;;;;;0.20;0.20;;;;;;;18.25;50.54;101657.44;5195372;28;20502;-79
2022/07/02 07:19:46;;;;;;;0.10;0.10;;;;;;;18.34;50.49;101656.19;5207398;28;20082;-80
2022/07/02 07:22:19;;;;;;;0.17;0.17;;;;;;;18.37;50.41;101660.50;5186744;28;20037;-79
2022/07/02 07:24:49;;;;;;;0.20;0.20;;;;;;;18.44;50.36;101667.25;5206877;28;20217;-80
2022/07/02 07:27:20;;;;;;;0.98;0.90;;;;;;;18.48;51.32;101658.19;5188781;28;20070;-80
2022/07/02 07:29:53;;;;;;;;;;;;;;;18.51;50.78;101652.75;5198358;28;20051;-79
2022/07/02 07:32:24;;;;;;;0.20;0.20;;;;;;;18.54;50.77;101654.41;5205731;28;20540;-79
2022/07/02 07:34:54;;;;;;;0.40;0.40;;;;;;;18.59;50.46;101659.50;5171192;28;20178;-79
2022/07/02 07:37:25;;;;;;;0.30;0.30;;;;;;;18.68;51.23;101659.94;5180924;28;20049;-80
2022/07/02 07:39:58;;;;;;;0.20;0.20;;;;;;;18.75;51.32;101655.19;5201839;28;20032;-79
2022/07/02 07:42:46;;;;;;;0.22;0.22;;;;;;;18.80;51.04;101660.31;5187359;28;20044;-79
2022/07/02 07:45:16;;;;;;;1.20;0.63;;;;;;;18.78;50.49;101655.06;5202414;28;20036;-79
2022/07/02 07:47:47;;;;;;;0.73;0.73;;;;;;;18.82;50.92;101658.44;5194523;28;20064;-79
2022/07/02 07:50:18;;;;;;;0.63;0.63;;;;;;;18.94;50.68;101659.69;5217537;28;20041;-79
2022/07/02 07:52:48;;;;;;;0.45;0.45;;;;;;;18.95;50.76;101653.44;5201842;28;20033;-79
2022/07/02 07:55:19;;;;;;;0.35;0.35;;;;;;;18.90;50.80;101660.72;5182840;28;20087;-79
2022/07/02 07:57:53;;;;;;;0.30;0.30;;;;;;;18.94;49.35;101659.69;5182356;28;20036;-78
2022/07/02 08:00:26;;;;;;;2.50;1.65;;;;;;;18.95;49.28;101666.72;5190665;28;20029;-79
2022/07/02 08:02:57;;;;;;;0.80;0.80;;;;;;;19.00;48.88;101662.03;5203293;28;20052;-79
2022/07/02 08:05:30;;;;;;;0.65;0.65;;;;;;;19.07;49.02;101658.16;5190058;28;20048;-79
2022/07/02 08:08:14;;;;;;;;;;;;;;;19.05;49.62;101662.69;5205308;28;20025;-79
2022/07/02 08:10:46;;;;;;;0.20;0.20;;;;;;;19.08;48.75;101661.69;5184172;28;19916;-79
2022/07/02 08:13:18;;;;;;;0.40;0.40;;;;;;;19.09;48.91;101658.94;5202153;28;20033;-79
2022/07/02 08:15:49;;;;;;;0.20;0.20;;;;;;;19.13;49.17;101655.19;5190165;28;20052;-79
2022/07/02 08:18:22;;;;;;;9.32;0.73;;;;;;;19.22;49.22;101653.91;5182159;28;20361;-79
2022/07/02 08:20:56;;;;;;;0.17;0.17;;;;;;;19.24;46.88;101648.50;5217425;28;20603;-79
2022/07/02 08:23:27;;;;;;;0.30;0.30;;;;;;;19.18;46.00;101647.88;5203919;28;20032;-79
2022/07/02 08:25:58;;;;;;;0.22;0.22;;;;;;;19.19;46.86;101651.38;5142571;28;20046;-79
2022/07/02 08:28:28;;;;;;;0.10;0.10;;;;;;;19.24;46.66;101656.47;5171417;28;20095;-79
2022/07/02 08:30:59;;;;;;;0.40;0.40;;;;;;;19.26;46.17;101659.94;5185830;28;20029;-79
2022/07/02 08:33:32;;;;;;;0.50;0.50;;;;;;;19.36;45.95;101645.25;5205785;28;20064;-80
2022/07/02 08:36:02;;;;;;;0.20;0.20;;;;;;;19.42;46.61;101647.59;5202372;28;20489;-80
2022/07/02 08:38:34;;;;;;;0.20;0.20;;;;;;;19.39;45.25;101645.06;5160839;28;20029;-80
2022/07/02 08:41:12;;;;;;;1.95;0.60;;;;;;;19.50;46.31;101641.91;5166164;28;20132;-80
2022/07/02 08:43:51;;;;;;;0.43;0.43;;;;;;;19.49;46.10;101641.03;5168752;28;20096;-80
2022/07/02 08:46:23;;;;;;;0.20;0.20;;;;;;;19.49;44.12;101642.84;5201414;28;20049;-79
2022/07/02 08:48:57;;;;;;;0.28;0.28;;;;;;;19.50;44.27;101636.59;5171065;28;20039;-79
2022/07/02 08:51:28;;;;;;;0.20;0.20;;;;;;;19.54;44.14;101637.28;5191606;28;20189;-79
2022/07/02 08:54:00;;;;;;;0.22;0.22;;;;;;;19.56;43.68;101632.72;5210984;28;20132;-80
2022/07/02 08:56:32;;;;;;;1.45;0.40;;;;;;;19.60;44.45;101631.66;5199750;28;20521;-79
2022/07/02 08:59:06;;;;;;;0.20;0.20;;;;;;;19.64;44.37;101631.41;5200032;28;20033;-80
2022/07/02 09:01:37;;;;;;;0.20;0.20;;;;;;;19.73;44.64;101624.75;5199618;28;20044;-79
2022/07/02 09:04:14;;;;;;;0.20;0.20;;;;;;;19.74;45.34;101629.13;5186099;28;20024;-79
2022/07/02 09:06:49;;;;;;;0.20;0.20;;;;;;;19.79;43.71;101632.41;5196522;28;20049;-78
2022/07/02 09:09:20;;;;;;;0.20;0.20;;;;;;;19.89;45.24;101621.31;5199332;28;20514;-78
2022/07/02 09:11:50;;;;;;;0.20;0.20;;;;;;;19.94;45.75;101622.78;5187959;28;20072;-79
2022/07/02 09:14:24;;;;;;;0.30;0.30;;;;;;;20.00;45.31;101612.78;5201977;28;20096;-79
2022/07/02 09:16:55;;;;;;;0.45;0.32;;;;;;;20.14;45.18;101615.56;5191925;28;20040;-79
2022/07/02 09:19:26;;;;;;;0.20;0.20;;;;;;;20.15;45.59;101616.41;5179708;28;20028;-78
2022/07/02 09:21:57;;;;;;;0.20;0.20;;;;;;;20.20;44.33;101622.38;5184218;28;20044;-79
2022/07/02 09:24:39;;;;;;;0.98;0.98;;;;;;;20.20;42.46;101619.72;5200651;28;20037;-78
2022/07/02 09:27:15;;;;;;;0.30;0.30;;;;;;;20.21;43.17;101626.75;5176412;28;20037;-79
2022/07/02 09:29:50;;;;;;;0.20;0.20;;;;;;;20.28;44.19;101606.84;5203639;28;20090;-79
2022/07/02 09:32:21;;;;;;;0.60;0.43;;;;;;;20.35;43.27;101616.22;5160062;28;20756;-79
2022/07/02 09:34:53;;;;;;;0.52;0.20;;;;;;;20.39;43.96;101608.91;5191866;28;20632;-79
2022/07/02 09:37:28;;;;;;;0.17;0.17;;;;;;;20.47;44.22;101605.81;5214999;28;20048;-79
2022/07/02 09:40:03;;;;;;;0.20;0.20;;;;;;;20.44;42.72;101602.41;5200973;28;20025;-79
2022/07/02 09:42:37;;;;;;;0.20;0.20;;;;;;;20.47;43.35;101601.34;5188044;28;20033;-78
2022/07/02 09:45:10;;;;;;;0.20;0.20;;;;;;;20.52;42.86;101598.44;5183674;28;20685;-79
2022/07/02 09:47:48;;;;;;;0.30;0.30;;;;;;;20.59;42.72;101597.16;5209712;28;20392;-78
2022/07/02 09:50:22;;;;;;;0.20;0.20;;;;;;;20.63;42.92;101604.03;5183130;28;20039;-79
2022/07/02 09:52:57;;;;;;;0.20;0.20;;;;;;;20.68;41.87;101599.31;5182834;28;20029;-79
2022/07/02 09:55:32;;;;;;;0.40;0.40;;;;;;;20.77;42.64;101597.09;5187970;28;20037;-79
2022/07/02 09:58:08;;;;;;;0.17;0.17;;;;;;;20.81;42.85;101594.19;5206010;28;20065;-79
2022/07/02 10:00:44;;;;;;;0.20;0.20;;;;;;;20.96;42.76;101587.09;5183042;28;20041;-79
2022/07/02 10:03:15;;;;;;;0.20;0.20;;;;;;;20.98;40.89;101574.53;5179508;28;20017;-79
2022/07/02 10:05:49;;;;;;;0.17;0.17;;;;;;;21.03;41.75;101575.13;5216454;28;20055;-78
2022/07/02 10:08:21;;;;;;;0.52;0.52;;;;;;;21.12;42.81;101580.88;5214186;28;20111;-79
2022/07/02 10:10:52;;;;;;;0.20;0.20;;;;;;;21.20;40.84;101578.59;5158122;28;20041;-79
2022/07/02 10:13:23;;;;;;;0.65;0.65;;;;;;;21.19;39.61;101574.25;5205101;28;20041;-78
2022/07/02 10:16:03;;;;;;;0.13;0.13;;;;;;;21.29;41.66;101572.75;5193042;28;20120;-80
2022/07/02 10:18:35;;;;;;;0.30;0.30;;;;;;;21.33;40.81;101568.06;5202640;28;20039;-79
2022/07/02 10:21:11;;;;;;;0.30;0.30;;;;;;;21.39;41.63;101563.25;5203272;28;20037;-79
2022/07/02 10:23:46;;;;;;;0.20;0.20;;;;;;;21.51;40.19;101566.97;5203123;28;20060;-79
2022/07/02 10:26:17;;;;;;;0.15;0.15;;;;;;;21.51;39.09;101566.13;5164959;28;20100;-80
2022/07/02 10:28:49;;;;;;;0.20;0.20;;;;;;;21.56;38.85;101558.69;5196401;28;20127;-79
2022/07/02 10:31:20;;;;;;;0.20;0.20;;;;;;;21.61;40.38;101547.78;5167923;28;20501;-79
2022/07/02 10:34:25;;;;;;;0.20;0.20;;;;;;;21.61;38.61;101550.44;5209235;28;20033;-79
2022/07/02 10:36:58;;;;;;;0.20;0.20;;;;;;;21.65;38.72;101542.16;5187123;28;20037;-79
2022/07/02 10:39:38;;;;;;;0.10;0.10;;;;;;;21.70;39.12;101531.19;5204986;28;20047;-79
2022/07/02 10:42:09;;;;;;;0.20;0.20;;;;;;;21.77;39.19;101529.00;5198864;28;20116;-79
2022/07/02 10:44:41;;;;;;;0.20;0.20;;;;;;;21.80;37.48;101532.34;5204669;28;20479;-79
2022/07/02 10:47:25;;;;;;;0.20;0.20;;;;;;;21.89;38.76;101530.06;5194300;28;20041;-79
2022/07/02 10:50:00;;;;;;;0.20;0.20;;;;;;;21.98;39.66;101516.97;5181520;28;20032;-79
2022/07/02 10:52:47;;;;;;;0.50;0.45;;;;;;;22.02;40.13;101518.50;5194540;28;20049;-80
2022/07/02 10:55:31;;;;;;;0.20;0.20;;;;;;;22.06;39.82;101519.19;5180108;28;20049;-80
2022/07/02 10:58:04;;;;;;;0.20;0.20;;;;;;;22.15;39.02;101518.56;5207557;28;20040;-79
2022/07/02 11:00:39;;;;;;;0.20;0.20;;;;;;;22.26;38.48;101515.25;5186984;28;20084;-79
2022/07/02 11:03:14;;;;;;;0.20;0.20;;;;;;;22.27;38.45;101522.28;5203574;28;20021;-79
2022/07/02 11:05:54;;;;;;;0.20;0.20;;;;;;;22.35;38.78;101512.94;5177088;28;20033;-80
2022/07/02 11:08:44;;;;;;;0.20;0.20;;;;;;;22.46;37.73;101516.66;5211747;28;20116;-80
2022/07/02 11:11:19;;;;;;;0.20;0.20;;;;;;;22.39;36.93;101509.09;5199040;28;20468;-79
2022/07/02 11:14:06;;;;;;;0.20;0.20;;;;;;;22.50;38.05;101513.75;5204212;28;20037;-80
2022/07/02 11:16:50;;;;;;;0.20;0.20;;;;;;;22.60;38.70;101506.88;5197241;28;20124;-79
2022/07/02 11:19:24;;;;;;;0.45;0.30;;;;;;;22.63;38.45;101506.69;5202301;28;20111;-80
2022/07/02 11:22:01;;;;;;;0.40;0.40;;;;;;;22.66;38.04;101508.28;5199935;28;20104;-79
2022/07/02 11:24:32;;;;;;;0.65;0.65;;;;;;;22.74;37.73;101500.59;5214587;28;20444;-80
2022/07/02 11:27:03;;;;;;;0.50;0.50;;;;;;;22.77;37.58;101505.72;5201933;28;20040;-79
2022/07/02 11:29:36;;;;;;;0.57;0.57;;;;;;;22.84;38.32;101506.19;5191387;28;20119;-79
2022/07/02 11:32:06;;;;;;;;;;;;;;;22.90;37.59;101493.28;5190765;28;20029;-79
2022/07/02 11:34:37;;;;;;;0.68;0.60;;;;;;;22.95;36.99;101491.13;5204512;28;19936;-79
2022/07/02 11:37:08;;;;;;;0.20;0.20;;;;;;;23.05;38.26;101493.19;5186938;28;20033;-80
2022/07/02 11:39:39;;;;;;;0.32;0.32;;;;;;;23.24;37.39;101501.72;5183010;28;20037;-79
2022/07/02 11:42:10;;;;;;;0.20;0.20;;;;;;;23.34;37.10;101501.09;5151148;28;20038;-80
2022/07/02 11:44:40;;;;;;;1.65;0.77;;;;;;;23.42;37.44;101488.88;5203508;28;20058;-79
2022/07/02 11:47:11;;;;;;;0.20;0.20;;;;;;;23.55;36.43;101485.34;5199662;28;20029;-79
2022/07/02 11:49:41;;;;;;;0.35;0.35;;;;;;;23.69;36.27;101487.03;5178455;28;20402;-79
2022/07/02 11:52:12;;;;;;;0.22;0.22;;;;;;;23.74;37.15;101482.22;5220051;28;20056;-80
2022/07/02 11:54:43;;;;;;;0.65;0.65;;;;;;;23.82;36.74;101463.78;5204279;28;20077;-79
2022/07/02 11:57:13;;;;;;;0.30;0.30;;;;;;;23.97;37.38;101477.91;5200745;28;20051;-80
2022/07/02 11:59:50;;;;;;;0.35;0.28;;;;;;;24.04;36.78;101470.28;5192633;28;20025;-79